Airport Name : Curtis Fld

Other Name : Brady

ICAO : KBBD

IATA : BBD

FAA : BBD

Latitude : 31.179289

Longitude : -99.323928

Country : United States

Local Date and Time : 1/22/2018 11:52:00 PM

 

TAF (Terminal Aerodrome Forecast)

KBBD 230520Z 2306/2406 VRB06KT P6SM SKC AMD NOT SKED

 

METAR (METeorological Aerodrome Report)